createdAt,value
2018-09-24T00:00:33.158Z,8.30
2018-09-24T00:04:35.716Z,8.30
2018-09-24T00:08:38.295Z,8.30
2018-09-24T00:12:40.911Z,8.20
2018-09-24T00:16:43.479Z,8.20
2018-09-24T00:20:46.375Z,8.20
2018-09-24T00:24:49.021Z,8.20
2018-09-24T00:28:51.609Z,8.10
2018-09-24T00:32:54.247Z,8.10
2018-09-24T00:36:56.823Z,8.10
2018-09-24T00:40:59.368Z,8.00
2018-09-24T00:45:02.027Z,8.00
2018-09-24T00:49:04.648Z,8.00
2018-09-24T00:53:07.461Z,8.00
2018-09-24T00:57:10.035Z,8.00
2018-09-24T01:01:12.621Z,8.00
2018-09-24T01:05:15.164Z,7.90
2018-09-24T01:09:17.742Z,8.00
2018-09-24T01:13:20.352Z,7.90
2018-09-24T01:17:23.037Z,7.90
2018-09-24T01:21:25.584Z,8.00
2018-09-24T01:25:28.205Z,8.00
2018-09-24T01:29:30.787Z,8.00
2018-09-24T01:33:33.408Z,7.90
2018-09-24T01:37:36.033Z,7.90
2018-09-24T01:41:38.654Z,7.90
2018-09-24T01:45:41.251Z,7.80
2018-09-24T01:49:43.843Z,7.90
2018-09-24T01:53:46.397Z,7.90
2018-09-24T01:57:48.921Z,7.90
2018-09-24T02:01:51.502Z,7.90
2018-09-24T02:05:54.120Z,7.90
2018-09-24T02:09:56.828Z,7.90
2018-09-24T02:13:59.466Z,7.80
2018-09-24T02:18:02.018Z,7.80
2018-09-24T02:22:04.688Z,7.80
2018-09-24T02:26:07.439Z,7.80
2018-09-24T02:30:13.489Z,7.80
2018-09-24T02:34:16.043Z,7.90
2018-09-24T02:38:19.396Z,7.80
2018-09-24T02:42:21.924Z,7.70
2018-09-24T02:46:24.549Z,7.70
2018-09-24T02:50:36.288Z,7.70
2018-09-24T02:54:38.871Z,7.70
2018-09-24T02:58:41.420Z,7.60
2018-09-24T03:02:44.260Z,7.60
2018-09-24T03:06:46.851Z,7.60
2018-09-24T03:10:49.378Z,7.60
2018-09-24T03:14:51.953Z,7.50
2018-09-24T03:18:57.238Z,7.60
2018-09-24T03:22:59.769Z,7.50
2018-09-24T03:27:02.452Z,7.50
2018-09-24T03:31:05.069Z,7.50
2018-09-24T03:35:07.640Z,7.60
2018-09-24T03:39:10.168Z,7.60
2018-09-24T03:43:12.763Z,7.60
2018-09-24T03:47:15.368Z,7.50
2018-09-24T03:51:17.963Z,7.50
2018-09-24T03:55:20.593Z,7.50
2018-09-24T03:59:23.202Z,7.50
2018-09-24T04:03:25.788Z,7.50
2018-09-24T04:07:33.942Z,7.60
2018-09-24T04:11:42.122Z,7.50
2018-09-24T04:15:50.278Z,7.50
2018-09-24T04:19:58.608Z,7.50
2018-09-24T04:24:06.884Z,7.50
2018-09-24T04:28:15.096Z,7.40
2018-09-24T04:32:23.280Z,7.40
2018-09-24T04:36:31.645Z,7.30
2018-09-24T04:40:39.760Z,7.20
2018-09-24T04:44:48.024Z,7.10
2018-09-24T04:48:56.189Z,7.10
2018-09-24T04:53:04.613Z,7.00
2018-09-24T04:57:12.957Z,7.00
2018-09-24T05:01:21.266Z,6.90
2018-09-24T05:05:29.568Z,6.90
2018-09-24T05:09:37.861Z,7.00
2018-09-24T05:13:46.207Z,7.00
2018-09-24T05:17:54.632Z,6.90
2018-09-24T05:22:02.743Z,7.00
2018-09-24T05:26:10.965Z,7.00
2018-09-24T05:30:19.256Z,7.10
2018-09-24T05:34:27.581Z,7.20
2018-09-24T05:38:35.733Z,7.10
2018-09-24T05:42:43.867Z,7.10
2018-09-24T05:46:52.145Z,7.10
2018-09-24T05:51:00.353Z,7.00
2018-09-24T05:55:08.539Z,7.30
2018-09-24T05:59:16.641Z,7.80
2018-09-24T06:03:24.840Z,8.20
2018-09-24T06:07:33.099Z,8.70
2018-09-24T06:11:41.323Z,8.90
2018-09-24T06:15:49.659Z,9.30
2018-09-24T06:19:57.903Z,9.50
2018-09-24T06:24:06.065Z,9.70
2018-09-24T06:28:14.497Z,10.00
2018-09-24T06:32:22.624Z,10.40
2018-09-24T06:36:30.994Z,10.70
2018-09-24T06:40:39.150Z,10.80
2018-09-24T06:44:47.370Z,11.00
2018-09-24T06:48:55.827Z,11.00
2018-09-24T06:53:04.142Z,10.80
2018-09-24T06:57:12.462Z,11.40
2018-09-24T07:01:20.713Z,12.00
2018-09-24T07:05:29.178Z,12.10
2018-09-24T07:09:37.404Z,12.70
2018-09-24T07:13:45.564Z,13.10
2018-09-24T07:17:53.884Z,13.70
2018-09-24T07:22:02.171Z,13.70
2018-09-24T07:26:10.409Z,13.90
2018-09-24T07:30:18.829Z,13.90
2018-09-24T07:34:27.139Z,14.00
2018-09-24T07:38:35.448Z,14.20
2018-09-24T07:42:43.515Z,14.20
2018-09-24T07:46:51.753Z,14.30
2018-09-24T07:51:00.027Z,14.50
2018-09-24T07:55:08.138Z,14.70
2018-09-24T07:59:16.720Z,14.20
2018-09-24T08:03:24.801Z,14.10
2018-09-24T08:07:33.050Z,14.80
2018-09-24T08:11:41.267Z,15.00
2018-09-24T08:15:49.545Z,15.30
2018-09-24T08:19:57.776Z,15.40
2018-09-24T08:24:05.967Z,15.50
2018-09-24T08:28:14.180Z,15.70
2018-09-24T08:32:22.411Z,16.10
2018-09-24T08:36:30.589Z,15.80
2018-09-24T08:40:38.698Z,15.70
2018-09-24T08:44:46.992Z,16.40
2018-09-24T08:48:55.258Z,16.00
2018-09-24T08:53:03.561Z,16.30
2018-09-24T08:57:12.109Z,16.00
2018-09-24T09:01:20.318Z,16.20
2018-09-24T09:05:28.639Z,16.30
2018-09-24T09:09:36.939Z,16.30
2018-09-24T09:13:45.204Z,16.20
2018-09-24T09:17:53.509Z,16.30
2018-09-24T09:22:01.619Z,16.90
2018-09-24T09:26:09.963Z,16.70
2018-09-24T09:30:18.239Z,16.60
2018-09-24T09:34:26.530Z,16.90
2018-09-24T09:38:34.771Z,17.20
2018-09-24T09:42:43.090Z,16.80
2018-09-24T09:46:51.273Z,16.80
2018-09-24T09:50:59.575Z,16.80
2018-09-24T09:55:07.780Z,15.80
2018-09-24T09:59:16.165Z,16.10
2018-09-24T10:03:24.225Z,16.30
2018-09-24T10:07:32.566Z,15.90
2018-09-24T10:11:40.920Z,15.30
2018-09-24T10:15:49.039Z,15.20
2018-09-24T10:19:57.371Z,15.30
2018-09-24T10:24:05.588Z,16.00
2018-09-24T10:28:13.775Z,15.90
2018-09-24T10:32:21.948Z,15.90
2018-09-24T10:36:30.210Z,15.70
2018-09-24T10:40:38.493Z,16.00
2018-09-24T10:44:46.627Z,16.20
2018-09-24T10:48:54.697Z,16.20
2018-09-24T10:53:02.908Z,16.00
2018-09-24T10:57:11.879Z,15.90
2018-09-24T11:01:20.043Z,15.70
2018-09-24T11:05:28.142Z,15.00
2018-09-24T11:09:36.460Z,14.60
2018-09-24T11:13:44.813Z,14.70
2018-09-24T11:17:53.284Z,15.40
2018-09-24T11:22:01.276Z,16.40
2018-09-24T11:26:09.457Z,16.60
2018-09-24T11:30:17.748Z,16.70
2018-09-24T11:34:25.995Z,17.10
2018-09-24T11:38:34.203Z,17.20
2018-09-24T11:42:42.395Z,17.10
2018-09-24T11:46:50.637Z,16.60
2018-09-24T11:50:58.835Z,16.00
2018-09-24T11:55:07.043Z,16.20
2018-09-24T11:59:15.211Z,15.80
2018-09-24T12:03:23.437Z,15.70
2018-09-24T12:07:31.604Z,16.30
2018-09-24T12:11:39.924Z,16.50
2018-09-24T12:15:48.260Z,16.50
2018-09-24T12:19:56.527Z,16.10
2018-09-24T12:24:04.968Z,15.40
2018-09-24T12:28:13.071Z,13.80
2018-09-24T12:32:21.366Z,13.10
2018-09-24T12:36:29.561Z,12.70
2018-09-24T12:40:37.833Z,13.30
2018-09-24T12:44:46.195Z,14.20
2018-09-24T12:48:54.421Z,14.80
2018-09-24T12:53:02.583Z,15.50
2018-09-24T12:57:10.905Z,15.00
2018-09-24T13:01:18.989Z,14.40
2018-09-24T13:05:27.144Z,13.70
2018-09-24T13:09:35.518Z,13.30
2018-09-24T13:13:43.697Z,13.10
2018-09-24T13:17:52.004Z,13.10
2018-09-24T13:22:00.183Z,13.20
2018-09-24T13:26:08.542Z,13.30
2018-09-24T13:30:16.657Z,13.10
2018-09-24T13:34:24.819Z,13.00
2018-09-24T13:38:33.037Z,13.60
2018-09-24T13:42:41.122Z,14.40
2018-09-24T13:46:49.438Z,15.00
2018-09-24T13:50:57.693Z,15.40
2018-09-24T13:55:05.890Z,15.70
2018-09-24T13:59:14.055Z,16.20
2018-09-24T14:03:22.215Z,16.60
2018-09-24T14:07:30.253Z,16.50
2018-09-24T14:11:38.564Z,16.20
2018-09-24T14:15:46.811Z,15.90
2018-09-24T14:19:54.995Z,14.80
2018-09-24T14:24:03.278Z,14.00
2018-09-24T14:28:11.533Z,13.10
2018-09-24T14:32:19.844Z,12.70
2018-09-24T14:36:28.270Z,12.40
2018-09-24T14:40:36.451Z,12.20
2018-09-24T14:44:44.734Z,12.50
2018-09-24T14:48:53.048Z,13.00
2018-09-24T14:53:01.294Z,13.20
2018-09-24T14:57:09.561Z,13.50
2018-09-24T15:01:17.678Z,13.50
2018-09-24T15:05:25.787Z,13.70
2018-09-24T15:09:34.010Z,13.70
2018-09-24T15:13:42.242Z,13.80
2018-09-24T15:17:50.465Z,13.60
2018-09-24T15:21:58.635Z,13.50
2018-09-24T15:26:06.982Z,13.30
2018-09-24T15:30:15.236Z,13.20
2018-09-24T15:34:23.569Z,13.20
2018-09-24T15:38:31.982Z,13.10
2018-09-24T15:42:40.264Z,13.10
2018-09-24T15:46:48.585Z,13.00
2018-09-24T15:50:56.834Z,13.00
2018-09-24T15:55:05.088Z,13.00
2018-09-24T15:59:13.389Z,13.10
2018-09-24T16:03:21.684Z,13.10
2018-09-24T16:07:29.761Z,13.00
2018-09-24T16:11:38.083Z,12.80
2018-09-24T16:15:46.267Z,12.80
2018-09-24T16:19:54.529Z,12.80
2018-09-24T16:24:02.698Z,12.80
2018-09-24T16:28:11.002Z,12.90
2018-09-24T16:32:19.274Z,12.90
2018-09-24T16:36:27.649Z,12.70
2018-09-24T16:40:35.824Z,12.70
2018-09-24T16:44:44.093Z,12.70
2018-09-24T16:48:52.380Z,12.70
2018-09-24T16:53:00.649Z,12.70
2018-09-24T16:57:08.820Z,12.60
2018-09-24T17:01:17.078Z,12.50
2018-09-24T17:05:25.406Z,12.30
2018-09-24T17:09:33.613Z,12.20
2018-09-24T17:13:42.141Z,12.10
2018-09-24T17:17:50.490Z,12.00
2018-09-24T17:21:58.964Z,11.90
2018-09-24T17:26:07.144Z,11.80
2018-09-24T17:30:15.255Z,11.60
2018-09-24T17:34:23.387Z,11.50
2018-09-24T17:38:32.029Z,11.40
2018-09-24T17:42:40.269Z,11.20
2018-09-24T17:46:48.597Z,11.10
2018-09-24T17:50:56.808Z,11.00
2018-09-24T17:55:05.060Z,10.90
2018-09-24T17:59:13.380Z,10.80
2018-09-24T18:03:21.537Z,10.70
2018-09-24T18:07:29.697Z,10.80
2018-09-24T18:11:37.920Z,10.60
2018-09-24T18:15:46.133Z,10.50
2018-09-24T18:19:54.374Z,10.50
2018-09-24T18:24:03.993Z,10.40
2018-09-24T18:28:12.230Z,10.30
2018-09-24T18:32:20.495Z,10.30
2018-09-24T18:36:28.733Z,10.30
2018-09-24T18:40:37.009Z,10.10
2018-09-24T18:44:45.311Z,9.90
2018-09-24T18:48:53.596Z,9.90
2018-09-24T18:53:01.769Z,9.70
2018-09-24T18:57:10.103Z,9.70
2018-09-24T19:01:18.166Z,9.70
2018-09-24T19:05:27.585Z,9.60
2018-09-24T19:09:35.935Z,9.60
2018-09-24T19:13:44.124Z,9.60
2018-09-24T19:17:52.407Z,9.60
2018-09-24T19:22:00.672Z,9.50
2018-09-24T19:26:08.945Z,9.50
2018-09-24T19:30:17.243Z,9.40
2018-09-24T19:34:26.258Z,9.40
2018-09-24T19:38:34.566Z,9.30
2018-09-24T19:42:43.015Z,9.30
2018-09-24T19:46:51.374Z,9.30
2018-09-24T19:51:06.517Z,9.30
2018-09-24T19:55:14.996Z,9.20
2018-09-24T19:59:23.177Z,9.30
2018-09-24T20:03:31.555Z,9.30
2018-09-24T20:07:40.027Z,9.40
2018-09-24T20:11:48.431Z,9.30
2018-09-24T20:15:56.882Z,9.30
2018-09-24T20:20:05.310Z,9.30
2018-09-24T20:24:13.538Z,9.30
2018-09-24T20:28:21.964Z,9.20
2018-09-24T20:32:30.276Z,9.20
2018-09-24T20:36:38.533Z,9.20
2018-09-24T20:40:51.129Z,9.10
2018-09-24T20:44:59.479Z,9.10
2018-09-24T20:49:07.583Z,9.00
2018-09-24T20:53:15.906Z,8.90
2018-09-24T20:57:24.167Z,8.80
2018-09-24T21:01:32.461Z,8.80
2018-09-24T21:05:40.757Z,8.80
2018-09-24T21:09:49.222Z,8.70
2018-09-24T21:13:57.544Z,8.70
2018-09-24T21:18:05.902Z,8.60
2018-09-24T21:22:14.293Z,8.60
2018-09-24T21:26:22.468Z,8.60
2018-09-24T21:30:30.727Z,8.50
2018-09-24T21:34:39.006Z,8.50
2018-09-24T21:38:47.171Z,8.50
2018-09-24T21:42:55.420Z,8.30
2018-09-24T21:47:03.862Z,8.40
2018-09-24T21:51:12.070Z,8.40
2018-09-24T21:55:20.260Z,8.30
2018-09-24T21:59:28.626Z,8.30
2018-09-24T22:03:37.078Z,8.20
2018-09-24T22:07:45.418Z,8.30
2018-09-24T22:11:53.897Z,8.20
2018-09-24T22:16:02.169Z,8.20
2018-09-24T22:20:10.578Z,8.10
2018-09-24T22:24:18.994Z,8.10
2018-09-24T22:28:27.262Z,8.10
2018-09-24T22:32:35.497Z,8.10
2018-09-24T22:36:43.722Z,8.00
2018-09-24T22:40:51.960Z,8.00
2018-09-24T22:45:00.386Z,7.90
2018-09-24T22:49:08.815Z,7.90
2018-09-24T22:53:17.874Z,7.90
2018-09-24T22:57:25.990Z,7.90
2018-09-24T23:01:35.201Z,7.80
2018-09-24T23:05:43.460Z,7.80
2018-09-24T23:09:51.686Z,7.80
2018-09-24T23:14:00.185Z,7.80
2018-09-24T23:18:08.469Z,7.80
2018-09-24T23:22:16.935Z,7.70
2018-09-24T23:26:25.274Z,7.70
2018-09-24T23:30:33.499Z,7.70
2018-09-24T23:39:06.456Z,7.60
2018-09-24T23:43:14.845Z,7.70
2018-09-24T23:47:23.219Z,7.60
2018-09-24T23:51:31.424Z,7.60
2018-09-24T23:55:39.592Z,7.60
2018-09-24T23:59:47.916Z,7.50
